createdAt,value
2018-09-20T00:00:59.841Z,9.70
2018-09-20T00:03:28.436Z,10.10
2018-09-20T00:05:56.921Z,10.90
2018-09-20T00:08:25.481Z,11.00
2018-09-20T00:10:54.080Z,10.97
2018-09-20T00:13:22.641Z,10.50
2018-09-20T00:15:51.197Z,10.50
2018-09-20T00:18:19.724Z,10.03
2018-09-20T00:20:48.259Z,9.97
2018-09-20T00:23:17.346Z,10.60
2018-09-20T00:25:45.871Z,10.57
2018-09-20T00:28:14.498Z,10.97
2018-09-20T00:30:43.018Z,10.60
2018-09-20T00:33:11.569Z,11.13
2018-09-20T00:35:40.100Z,11.37
2018-09-20T00:38:08.631Z,11.10
2018-09-20T00:40:37.204Z,11.10
2018-09-20T00:43:05.783Z,10.83
2018-09-20T00:45:34.344Z,10.40
2018-09-20T00:48:02.999Z,10.93
2018-09-20T00:50:31.577Z,10.67
2018-09-20T00:53:00.078Z,11.13
2018-09-20T00:55:28.653Z,11.47
2018-09-20T00:57:57.196Z,10.77
2018-09-20T01:00:25.840Z,10.67
2018-09-20T01:02:54.397Z,10.57
2018-09-20T01:05:22.980Z,10.83
2018-09-20T01:07:51.517Z,10.93
2018-09-20T01:10:20.560Z,10.50
2018-09-20T01:12:49.095Z,11.10
2018-09-20T01:15:17.682Z,11.17
2018-09-20T01:17:46.210Z,10.70
2018-09-20T01:20:15.457Z,10.80
2018-09-20T01:22:44.006Z,10.80
2018-09-20T01:25:12.897Z,12.00
2018-09-20T01:27:41.857Z,12.10
2018-09-20T01:30:10.449Z,11.93
2018-09-20T01:32:39.251Z,11.83
2018-09-20T01:35:07.924Z,12.20
2018-09-20T01:37:36.472Z,11.47
2018-09-20T01:40:05.103Z,12.30
2018-09-20T01:42:33.651Z,12.20
2018-09-20T01:45:02.214Z,12.17
2018-09-20T01:47:31.462Z,12.57
2018-09-20T01:50:00.161Z,11.60
2018-09-20T01:52:28.962Z,12.47
2018-09-20T01:54:57.508Z,11.43
2018-09-20T01:57:26.017Z,11.63
2018-09-20T01:59:54.566Z,11.93
2018-09-20T02:02:23.099Z,11.17
2018-09-20T02:04:51.665Z,11.50
2018-09-20T02:07:20.211Z,11.43
2018-09-20T02:09:48.749Z,11.63
2018-09-20T02:12:17.295Z,11.53
2018-09-20T02:14:45.835Z,11.70
2018-09-20T02:17:14.387Z,12.00
2018-09-20T02:19:42.948Z,11.83
2018-09-20T02:22:11.505Z,11.73
2018-09-20T02:24:40.031Z,11.80
2018-09-20T02:27:08.584Z,11.57
2018-09-20T02:29:37.124Z,12.07
2018-09-20T02:32:05.673Z,12.10
2018-09-20T02:34:34.208Z,11.53
2018-09-20T02:37:02.751Z,11.50
2018-09-20T02:39:31.277Z,11.80
2018-09-20T02:41:59.836Z,11.23
2018-09-20T02:44:28.375Z,11.40
2018-09-20T02:46:56.957Z,11.20
2018-09-20T02:49:25.486Z,12.30
2018-09-20T02:51:54.098Z,11.80
2018-09-20T02:54:22.625Z,10.97
2018-09-20T02:56:51.171Z,12.20
2018-09-20T02:59:19.692Z,12.27
2018-09-20T03:01:48.279Z,12.13
2018-09-20T03:04:16.795Z,12.67
2018-09-20T03:06:45.343Z,11.93
2018-09-20T03:09:13.877Z,13.17
2018-09-20T03:11:42.440Z,13.30
2018-09-20T03:14:10.958Z,12.93
2018-09-20T03:16:39.504Z,12.60
2018-09-20T03:19:08.031Z,13.53
2018-09-20T03:21:37.206Z,12.70
2018-09-20T03:24:05.817Z,12.97
2018-09-20T03:26:34.423Z,13.23
2018-09-20T03:29:02.962Z,13.93
2018-09-20T03:31:31.486Z,13.93
2018-09-20T03:34:00.031Z,13.30
2018-09-20T03:36:28.582Z,13.13
2018-09-20T03:38:57.091Z,13.33
2018-09-20T03:41:25.637Z,13.67
2018-09-20T03:43:54.265Z,13.73
2018-09-20T03:46:22.829Z,13.40
2018-09-20T03:48:51.371Z,13.37
2018-09-20T03:51:19.907Z,13.47
2018-09-20T03:53:48.424Z,13.93
2018-09-20T03:56:16.981Z,14.00
2018-09-20T03:58:45.524Z,13.83
2018-09-20T04:01:14.056Z,13.27
2018-09-20T04:03:42.589Z,13.60
2018-09-20T04:06:11.469Z,14.67
2018-09-20T04:08:40.006Z,14.13
2018-09-20T04:11:08.571Z,14.20
2018-09-20T04:13:37.328Z,14.27
2018-09-20T04:16:06.173Z,13.23
2018-09-20T04:18:34.972Z,13.43
2018-09-20T04:21:03.533Z,13.47
2018-09-20T04:23:32.041Z,14.40
2018-09-20T04:26:00.604Z,14.30
2018-09-20T04:28:29.126Z,13.47
2018-09-20T04:30:57.639Z,13.33
2018-09-20T04:33:26.212Z,13.40
2018-09-20T04:35:54.732Z,13.23
2018-09-20T04:38:23.278Z,14.07
2018-09-20T04:40:51.929Z,14.00
2018-09-20T04:43:20.468Z,13.73
2018-09-20T04:45:49.004Z,13.80
2018-09-20T04:48:17.576Z,13.90
2018-09-20T04:50:46.081Z,14.87
2018-09-20T04:53:14.645Z,15.00
2018-09-20T04:55:43.257Z,15.27
2018-09-20T04:58:12.487Z,15.80
2018-09-20T05:00:41.057Z,15.47
2018-09-20T05:03:09.606Z,14.93
2018-09-20T05:05:38.145Z,15.57
2018-09-20T05:08:06.696Z,14.47
2018-09-20T05:10:35.252Z,15.67
2018-09-20T05:13:03.795Z,15.27
2018-09-20T05:15:32.364Z,15.40
2018-09-20T05:18:00.908Z,14.60
2018-09-20T05:20:29.444Z,13.77
2018-09-20T05:22:57.994Z,14.93
2018-09-20T05:25:26.514Z,14.57
2018-09-20T05:27:55.080Z,14.03
2018-09-20T05:30:24.214Z,14.50
2018-09-20T05:32:52.778Z,14.60
2018-09-20T05:35:21.310Z,14.77
2018-09-20T05:37:49.875Z,15.50
2018-09-20T05:40:18.671Z,15.30
2018-09-20T05:42:47.231Z,15.27
2018-09-20T05:45:15.747Z,14.90
2018-09-20T05:47:44.313Z,15.53
2018-09-20T05:50:12.857Z,15.07
2018-09-20T05:52:41.807Z,13.40
2018-09-20T05:55:10.338Z,14.00
2018-09-20T05:57:38.877Z,14.13
2018-09-20T06:00:08.029Z,14.10
2018-09-20T06:02:36.934Z,15.37
2018-09-20T06:05:05.948Z,13.87
2018-09-20T06:07:34.566Z,13.90
2018-09-20T06:10:03.204Z,13.77
2018-09-20T06:12:31.747Z,13.40
2018-09-20T06:15:00.318Z,14.50
2018-09-20T06:17:28.838Z,14.43
2018-09-20T06:19:57.386Z,15.47
2018-09-20T06:22:25.896Z,15.43
2018-09-20T06:24:54.497Z,15.27
2018-09-20T06:27:23.027Z,14.63
2018-09-20T06:29:51.583Z,14.73
2018-09-20T06:32:20.146Z,14.70
2018-09-20T06:34:48.765Z,15.60
2018-09-20T06:37:17.292Z,14.97
2018-09-20T06:39:45.840Z,15.87
2018-09-20T06:42:14.366Z,14.40
2018-09-20T06:44:42.927Z,14.70
2018-09-20T06:47:11.546Z,14.80
2018-09-20T06:49:40.116Z,14.37
2018-09-20T06:52:08.671Z,13.67
2018-09-20T06:54:37.218Z,13.90
2018-09-20T06:57:06.750Z,14.17
2018-09-20T06:59:35.307Z,14.63
2018-09-20T07:02:03.829Z,14.80
2018-09-20T07:04:32.365Z,14.63
2018-09-20T07:07:00.912Z,14.30
2018-09-20T07:09:29.471Z,14.97
2018-09-20T07:11:57.979Z,14.80
2018-09-20T07:14:26.528Z,14.73
2018-09-20T07:16:55.062Z,15.40
2018-09-20T07:19:23.628Z,12.60
2018-09-20T07:21:52.145Z,13.43
2018-09-20T07:24:20.681Z,14.07
2018-09-20T07:26:49.218Z,14.40
2018-09-20T07:29:17.760Z,15.37
2018-09-20T07:31:46.287Z,14.73
2018-09-20T07:34:15.101Z,14.23
2018-09-20T07:36:43.653Z,15.30
2018-09-20T07:39:12.261Z,14.57
2018-09-20T07:41:40.834Z,12.63
2018-09-20T07:44:10.067Z,14.10
2018-09-20T07:46:38.601Z,13.00
2018-09-20T07:49:07.272Z,12.90
2018-09-20T07:51:35.835Z,12.87
2018-09-20T07:54:04.483Z,11.73
2018-09-20T07:56:33.606Z,11.10
2018-09-20T07:59:02.372Z,11.07
2018-09-20T08:01:31.075Z,10.67
2018-09-20T08:04:00.387Z,10.10
2018-09-20T08:06:28.975Z,10.33
2018-09-20T08:08:57.511Z,10.27
2018-09-20T08:11:26.044Z,10.93
2018-09-20T08:13:54.565Z,10.20
2018-09-20T08:16:23.145Z,10.40
2018-09-20T08:18:51.660Z,10.43
2018-09-20T08:21:20.280Z,10.23
2018-09-20T08:23:48.783Z,10.33
2018-09-20T08:26:17.338Z,10.63
2018-09-20T08:28:45.860Z,11.43
2018-09-20T08:31:14.434Z,10.13
2018-09-20T08:33:42.962Z,10.40
2018-09-20T08:36:11.542Z,10.03
2018-09-20T08:38:40.083Z,11.00
2018-09-20T08:41:08.938Z,10.70
2018-09-20T08:43:37.492Z,10.33
2018-09-20T08:46:06.042Z,10.87
2018-09-20T08:48:34.593Z,11.10
2018-09-20T08:51:03.261Z,10.30
2018-09-20T08:53:31.776Z,11.27
2018-09-20T08:56:00.399Z,10.43
2018-09-20T08:58:31.965Z,10.90
2018-09-20T09:01:01.987Z,10.80
2018-09-20T09:03:30.849Z,10.87
2018-09-20T09:05:59.604Z,10.10
2018-09-20T09:08:28.131Z,10.73
2018-09-20T09:10:56.682Z,10.40
2018-09-20T09:13:25.217Z,10.20
2018-09-20T09:15:53.768Z,9.73
2018-09-20T09:18:22.287Z,9.67
2018-09-20T09:20:50.837Z,9.00
2018-09-20T09:23:19.348Z,7.63
2018-09-20T09:25:47.905Z,8.00
2018-09-20T09:28:16.387Z,7.50
2018-09-20T09:30:44.925Z,8.20
2018-09-20T09:33:13.505Z,7.43
2018-09-20T09:35:42.065Z,7.97
2018-09-20T09:38:10.572Z,8.00
2018-09-20T09:40:39.111Z,7.60
2018-09-20T09:43:07.656Z,7.13
2018-09-20T09:45:36.208Z,7.20
2018-09-20T09:48:04.779Z,7.10
2018-09-20T09:50:33.343Z,6.90
2018-09-20T09:53:01.900Z,7.23
2018-09-20T09:55:30.453Z,7.10
2018-09-20T09:57:58.968Z,7.27
2018-09-20T10:00:32.369Z,6.80
2018-09-20T10:03:00.900Z,7.20
2018-09-20T10:05:29.464Z,6.70
2018-09-20T10:07:58.019Z,7.30
2018-09-20T10:10:26.578Z,6.80
2018-09-20T10:12:55.371Z,6.80
2018-09-20T10:15:24.233Z,7.50
2018-09-20T10:17:52.979Z,6.47
2018-09-20T10:20:21.816Z,7.63
2018-09-20T10:22:50.356Z,6.20
2018-09-20T10:25:18.909Z,6.40
2018-09-20T10:27:47.510Z,6.27
2018-09-20T10:30:16.045Z,6.70
2018-09-20T10:32:44.588Z,6.00
2018-09-20T10:35:13.088Z,6.50
2018-09-20T10:37:41.736Z,6.03
2018-09-20T10:40:10.243Z,5.40
2018-09-20T10:42:38.780Z,6.23
2018-09-20T10:45:07.320Z,6.07
2018-09-20T10:47:35.861Z,6.00
2018-09-20T10:50:04.446Z,4.97
2018-09-20T10:52:33.243Z,5.60
2018-09-20T10:55:01.774Z,5.72
2018-09-20T10:57:30.312Z,5.25
2018-09-20T10:59:58.828Z,5.90
2018-09-20T11:02:27.374Z,4.70
2018-09-20T11:04:55.906Z,5.30
2018-09-20T11:07:24.439Z,5.25
2018-09-20T11:09:52.958Z,5.55
2018-09-20T11:12:21.532Z,5.30
2018-09-20T11:14:52.943Z,5.12
2018-09-20T11:17:21.486Z,5.50
2018-09-20T11:19:50.020Z,4.95
2018-09-20T11:22:18.605Z,5.08
2018-09-20T11:24:47.201Z,5.30
2018-09-20T11:27:15.787Z,4.87
2018-09-20T11:29:44.308Z,4.30
2018-09-20T11:32:12.954Z,4.40
2018-09-20T11:34:41.498Z,4.40
2018-09-20T11:37:10.055Z,4.95
2018-09-20T11:39:38.571Z,4.53
2018-09-20T11:42:07.118Z,4.40
2018-09-20T11:44:35.640Z,4.75
2018-09-20T11:47:04.208Z,5.08
2018-09-20T11:49:32.855Z,4.92
2018-09-20T11:52:01.412Z,4.90
2018-09-20T11:54:29.983Z,4.78
2018-09-20T11:56:58.502Z,4.97
2018-09-20T11:59:27.032Z,4.65
2018-09-20T12:01:56.592Z,4.35
2018-09-20T12:04:25.047Z,4.65
2018-09-20T12:06:53.685Z,4.40
2018-09-20T12:09:23.111Z,4.35
2018-09-20T12:11:51.901Z,4.40
2018-09-20T12:14:20.593Z,4.78
2018-09-20T12:16:49.141Z,4.40
2018-09-20T12:19:19.792Z,4.30
2018-09-20T12:21:48.349Z,4.22
2018-09-20T12:24:16.864Z,4.10
2018-09-20T12:26:45.388Z,4.37
2018-09-20T12:29:13.968Z,4.37
2018-09-20T12:31:42.860Z,4.40
2018-09-20T12:34:11.418Z,4.70
2018-09-20T12:36:40.032Z,4.20
2018-09-20T12:39:11.517Z,4.00
2018-09-20T12:41:40.406Z,4.10
2018-09-20T12:44:08.939Z,4.35
2018-09-20T12:46:38.196Z,4.37
2018-09-20T12:49:07.040Z,4.20
2018-09-20T12:51:35.944Z,4.00
2018-09-20T12:54:05.075Z,4.40
2018-09-20T12:56:33.700Z,4.10
2018-09-20T12:59:02.299Z,3.90
2018-09-20T13:01:31.044Z,4.30
2018-09-20T13:03:59.614Z,4.20
2018-09-20T13:06:28.863Z,4.10
2018-09-20T13:08:57.413Z,4.08
2018-09-20T13:11:26.040Z,3.80
2018-09-20T13:13:54.605Z,4.17
2018-09-20T13:16:23.107Z,4.47
2018-09-20T13:18:51.668Z,3.90
2018-09-20T13:21:20.201Z,4.05
2018-09-20T13:23:48.840Z,3.90
2018-09-20T13:26:17.348Z,4.03
2018-09-20T13:28:45.897Z,4.40
2018-09-20T13:31:14.420Z,3.90
2018-09-20T13:33:42.961Z,4.22
2018-09-20T13:36:11.484Z,3.90
2018-09-20T13:38:40.047Z,4.00
2018-09-20T13:41:08.615Z,3.83
2018-09-20T13:43:37.183Z,4.05
2018-09-20T13:46:05.736Z,3.67
2018-09-20T13:48:34.308Z,4.15
2018-09-20T13:51:02.839Z,3.80
2018-09-20T13:53:31.388Z,3.87
2018-09-20T13:55:59.898Z,4.17
2018-09-20T13:58:28.436Z,4.15
2018-09-20T14:00:56.990Z,3.90
2018-09-20T14:03:25.565Z,4.17
2018-09-20T14:05:54.126Z,4.22
2018-09-20T14:08:22.720Z,3.87
2018-09-20T14:10:51.256Z,3.80
2018-09-20T14:13:19.795Z,3.90
2018-09-20T14:15:48.406Z,3.60
2018-09-20T14:18:16.965Z,3.30
2018-09-20T14:20:45.752Z,3.58
2018-09-20T14:23:14.266Z,3.92
2018-09-20T14:25:42.796Z,3.47
2018-09-20T14:28:11.334Z,3.70
2018-09-20T14:30:39.855Z,4.00
2018-09-20T14:33:08.368Z,3.85
2018-09-20T14:35:36.913Z,4.00
2018-09-20T14:38:05.745Z,3.50
2018-09-20T14:40:34.325Z,3.70
2018-09-20T14:43:02.840Z,3.72
2018-09-20T14:45:31.380Z,4.03
2018-09-20T14:48:00.820Z,4.00
2018-09-20T14:50:30.751Z,3.80
2018-09-20T14:53:00.125Z,4.10
2018-09-20T14:55:29.758Z,4.05
2018-09-20T14:57:59.171Z,3.72
2018-09-20T15:00:28.513Z,4.10
2018-09-20T15:02:58.024Z,4.50
2018-09-20T15:05:27.480Z,3.40
2018-09-20T15:07:57.043Z,3.72
2018-09-20T15:10:26.714Z,4.03
2018-09-20T15:12:56.222Z,3.70
2018-09-20T15:15:25.695Z,3.95
2018-09-20T15:17:55.257Z,4.08
2018-09-20T15:20:24.735Z,4.10
2018-09-20T15:22:54.329Z,4.05
2018-09-20T15:25:23.932Z,4.10
2018-09-20T15:27:53.456Z,4.03
2018-09-20T15:30:23.069Z,4.20
2018-09-20T15:32:52.669Z,4.53
2018-09-20T15:35:21.464Z,4.50
2018-09-20T15:37:50.328Z,4.50
2018-09-20T15:40:18.884Z,4.62
2018-09-20T15:42:47.463Z,4.37
2018-09-20T15:45:16.004Z,4.42
2018-09-20T15:47:44.536Z,4.83
2018-09-20T15:50:13.110Z,5.00
2018-09-20T15:52:41.672Z,4.80
2018-09-20T15:55:10.209Z,5.00
2018-09-20T15:57:38.918Z,4.78
2018-09-20T16:00:07.744Z,5.00
2018-09-20T16:02:36.260Z,5.00
2018-09-20T16:05:04.878Z,5.45
2018-09-20T16:07:33.434Z,5.10
2018-09-20T16:10:02.447Z,5.80
2018-09-20T16:12:30.987Z,5.40
2018-09-20T16:14:59.595Z,5.05
2018-09-20T16:17:28.216Z,5.30
2018-09-20T16:19:56.884Z,4.75
2018-09-20T16:22:25.440Z,5.05
2018-09-20T16:24:54.001Z,5.08
2018-09-20T16:27:22.538Z,5.83
2018-09-20T16:30:02.232Z,5.50
2018-09-20T16:32:42.039Z,5.37
2018-09-20T16:36:17.734Z,5.60
2018-09-20T16:38:50.463Z,5.37
2018-09-20T16:41:22.324Z,5.40
2018-09-20T16:43:50.894Z,5.60
2018-09-20T16:46:19.782Z,5.47
2018-09-20T16:48:48.566Z,6.90
2018-09-20T16:51:17.097Z,6.53
2018-09-20T16:53:45.638Z,5.62
2018-09-20T16:56:14.143Z,6.50
2018-09-20T16:58:49.387Z,6.50
2018-09-20T17:01:18.898Z,6.00
2018-09-20T17:03:47.762Z,6.10
2018-09-20T17:06:16.813Z,5.80
2018-09-20T17:08:46.256Z,6.28
2018-09-20T17:11:14.777Z,6.20
2018-09-20T17:13:43.343Z,6.30
2018-09-20T17:16:12.024Z,6.30
2018-09-20T17:18:40.508Z,6.23
2018-09-20T17:21:09.680Z,6.40
2018-09-20T17:23:38.242Z,6.80
2018-09-20T17:26:07.333Z,6.67
2018-09-20T17:28:36.503Z,6.60
2018-09-20T17:31:05.469Z,7.20
2018-09-20T17:33:34.144Z,7.37
2018-09-20T17:36:02.988Z,7.50
2018-09-20T17:38:32.541Z,7.83
2018-09-20T17:41:05.130Z,7.23
2018-09-20T17:43:45.450Z,6.90
2018-09-20T17:46:14.165Z,7.10
2018-09-20T17:48:42.740Z,6.70
2018-09-20T17:51:12.787Z,7.33
2018-09-20T17:53:42.613Z,7.60
2018-09-20T17:56:12.116Z,7.13
2018-09-20T17:58:41.325Z,7.53
2018-09-20T18:01:09.869Z,7.87
2018-09-20T18:03:38.709Z,7.93
2018-09-20T18:06:07.285Z,7.63
2018-09-20T18:08:36.124Z,7.40
2018-09-20T18:11:04.805Z,7.60
2018-09-20T18:13:33.351Z,7.63
2018-09-20T18:16:01.888Z,7.80
2018-09-20T18:18:32.232Z,8.50
2018-09-20T18:21:02.960Z,8.00
2018-09-20T18:23:31.712Z,7.17
2018-09-20T18:26:00.255Z,7.40
2018-09-20T18:28:31.373Z,7.17
2018-09-20T18:31:01.176Z,9.23
2018-09-20T18:33:30.018Z,9.10
2018-09-20T18:36:01.731Z,8.17
2018-09-20T18:38:30.279Z,8.17
2018-09-20T18:40:59.343Z,8.53
2018-09-20T18:43:27.917Z,8.20
2018-09-20T18:45:56.555Z,7.53
2018-09-20T18:48:25.481Z,7.77
2018-09-20T18:51:00.301Z,7.60
2018-09-20T18:53:29.273Z,7.23
2018-09-20T18:55:57.824Z,8.20
2018-09-20T18:58:27.290Z,7.10
2018-09-20T19:00:56.062Z,7.70
2018-09-20T19:03:24.582Z,7.77
2018-09-20T19:05:54.024Z,7.90
2018-09-20T19:08:22.584Z,9.90
2018-09-20T19:10:51.161Z,9.80
2018-09-20T19:13:19.683Z,9.40
2018-09-20T19:15:48.858Z,9.13
2018-09-20T19:18:17.402Z,9.40
2018-09-20T19:20:46.108Z,9.00
2018-09-20T19:23:14.911Z,9.63
2018-09-20T19:25:43.578Z,13.57
2018-09-20T19:28:12.130Z,13.20
2018-09-20T19:30:40.906Z,18.77
2018-09-20T19:33:09.479Z,11.50
2018-09-20T19:35:42.079Z,10.73
2018-09-20T19:38:10.653Z,8.33
2018-09-20T19:40:39.948Z,8.57
2018-09-20T19:43:09.124Z,11.37
2018-09-20T19:45:37.705Z,10.60
2018-09-20T19:48:06.296Z,11.67
2018-09-20T19:50:35.586Z,10.67
2018-09-20T19:53:04.145Z,10.83
2018-09-20T19:55:32.868Z,11.47
2018-09-20T19:58:01.420Z,11.47
2018-09-20T20:00:30.062Z,10.87
2018-09-20T20:02:58.656Z,10.13
2018-09-20T20:05:27.394Z,10.50
2018-09-20T20:07:55.988Z,10.47
2018-09-20T20:10:25.652Z,10.50
2018-09-20T20:12:54.193Z,10.23
2018-09-20T20:15:22.770Z,10.03
2018-09-20T20:17:51.336Z,10.03
2018-09-20T20:20:19.947Z,9.90
2018-09-20T20:22:48.500Z,9.90
2018-09-20T20:25:17.058Z,10.37
2018-09-20T20:27:45.669Z,10.10
2018-09-20T20:30:14.262Z,10.47
2018-09-20T20:32:42.865Z,9.97
2018-09-20T20:35:11.484Z,9.90
2018-09-20T20:37:40.130Z,10.10
2018-09-20T20:40:08.688Z,10.27
2018-09-20T20:42:37.258Z,9.63
2018-09-20T20:45:05.911Z,10.20
2018-09-20T20:47:34.431Z,9.90
2018-09-20T20:50:02.947Z,9.53
2018-09-20T20:52:31.498Z,9.57
2018-09-20T20:55:00.012Z,9.23
2018-09-20T20:57:28.574Z,10.10
2018-09-20T20:59:57.409Z,9.50
2018-09-20T21:02:27.396Z,10.17
2018-09-20T21:04:56.029Z,9.63
2018-09-20T21:07:25.070Z,10.20
2018-09-20T21:09:54.669Z,10.07
2018-09-20T21:12:23.222Z,10.10
2018-09-20T21:14:51.746Z,9.90
2018-09-20T21:17:20.336Z,9.80
2018-09-20T21:19:48.836Z,9.57
2018-09-20T21:22:17.374Z,9.50
2018-09-20T21:24:45.958Z,9.97
2018-09-20T21:27:14.633Z,9.50
2018-09-20T21:29:43.175Z,9.93
2018-09-20T21:32:12.407Z,10.07
2018-09-20T21:34:41.153Z,9.77
2018-09-20T21:37:09.671Z,9.50
2018-09-20T21:39:38.323Z,8.83
2018-09-20T21:42:06.885Z,9.70
2018-09-20T21:44:35.455Z,9.27
2018-09-20T21:47:04.331Z,9.10
2018-09-20T21:49:32.885Z,9.37
2018-09-20T21:52:01.396Z,9.37
2018-09-20T21:54:29.964Z,9.40
2018-09-20T21:56:58.510Z,9.10
2018-09-20T21:59:27.083Z,9.30
2018-09-20T22:02:03.681Z,9.27
2018-09-20T22:04:33.121Z,9.63
2018-09-20T22:07:01.804Z,9.73
2018-09-20T22:09:30.978Z,10.07
2018-09-20T22:11:59.542Z,9.77
2018-09-20T22:14:28.227Z,9.80
2018-09-20T22:17:27.255Z,10.17
2018-09-20T22:19:55.827Z,9.90
2018-09-20T22:22:24.383Z,9.53
2018-09-20T22:24:52.945Z,9.87
2018-09-20T22:27:22.255Z,9.73
2018-09-20T22:29:50.863Z,9.90
2018-09-20T22:32:19.559Z,10.07
2018-09-20T22:34:48.149Z,9.73
2018-09-20T22:37:16.733Z,9.57
2018-09-20T22:39:45.534Z,10.10
2018-09-20T22:42:14.107Z,9.77
2018-09-20T22:44:42.822Z,10.37
2018-09-20T22:47:11.321Z,11.03
2018-09-20T22:49:39.868Z,9.73
2018-09-20T22:52:08.428Z,10.00
2018-09-20T22:54:36.998Z,9.93
2018-09-20T22:57:05.768Z,10.37
2018-09-20T22:59:34.630Z,10.40
2018-09-20T23:02:03.188Z,9.47
2018-09-20T23:04:31.757Z,9.43
2018-09-20T23:07:00.350Z,9.83
2018-09-20T23:09:28.901Z,9.73
2018-09-20T23:11:57.508Z,10.13
2018-09-20T23:14:26.057Z,9.50
2018-09-20T23:16:55.053Z,9.57
2018-09-20T23:19:23.694Z,9.90
2018-09-20T23:21:52.438Z,9.93
2018-09-20T23:24:21.568Z,10.23
2018-09-20T23:26:50.115Z,10.10
2018-09-20T23:29:19.377Z,9.80
2018-09-20T23:31:47.964Z,9.90
2018-09-20T23:34:16.529Z,9.77
2018-09-20T23:36:45.742Z,9.80
2018-09-20T23:39:14.445Z,9.80
2018-09-20T23:41:43.000Z,10.07
2018-09-20T23:44:11.540Z,9.73
2018-09-20T23:46:40.112Z,9.57
2018-09-20T23:49:08.705Z,10.40
2018-09-20T23:51:37.237Z,10.07
2018-09-20T23:54:06.067Z,10.50
2018-09-20T23:56:34.637Z,10.63
2018-09-20T23:59:03.199Z,10.50
